Time;durP1;ratioP1;P1;durP2;ratioP2;P2;SDS_P1;SDS_P2;PMS_P1;PMS_P2;Temp;Humidity;BMP_temperature;BMP_pressure;BME280_temperature;BME280_humidity;BME280_pressure;Samples;Min_cycle;Max_cycle;Signal;HPM_P1;HPM_P2
2021/07/31 00:00:42;;;;;;;6.68;3.80;;;;;;;21.78;70.42;97301.69;5036968;28;20068;-58
2021/07/31 00:03:07;;;;;;;6.97;3.72;;;;;;;21.62;70.75;97292.59;5028653;28;20861;-58
2021/07/31 00:05:32;;;;;;;6.45;3.75;;;;;;;21.61;71.31;97303.34;5028356;28;20451;-59
2021/07/31 00:07:58;;;;;;;5.55;3.80;;;;;;;21.51;71.60;97306.06;5037008;28;20064;-58
2021/07/31 00:10:23;;;;;;;7.47;4.10;;;;;;;21.42;71.85;97291.00;5028798;28;20880;-59
2021/07/31 00:12:48;;;;;;;6.13;3.88;;;;;;;21.95;70.14;97298.22;5026214;28;20959;-59
2021/07/31 00:15:14;;;;;;;7.65;3.90;;;;;;;21.86;70.60;97305.25;5031088;28;20119;-58
2021/07/31 00:17:39;;;;;;;8.30;3.80;;;;;;;21.75;71.63;97306.31;5028544;28;20371;-58
2021/07/31 00:20:05;;;;;;;6.32;3.90;;;;;;;21.68;71.87;97310.53;5026414;28;20041;-59
2021/07/31 00:22:31;;;;;;;8.10;4.07;;;;;;;21.75;71.91;97311.63;5029252;28;20757;-59
2021/07/31 00:24:56;;;;;;;6.18;4.18;;;;;;;21.74;72.01;97311.75;5032039;28;20041;-59
2021/07/31 00:27:21;;;;;;;6.35;4.20;;;;;;;21.37;73.07;97305.53;5031979;28;20037;-58
2021/07/31 00:29:47;;;;;;;5.55;3.90;;;;;;;21.44;73.02;97315.56;5030682;28;20033;-59
2021/07/31 00:32:12;;;;;;;7.68;4.22;;;;;;;21.54;72.60;97317.22;5031363;28;20087;-59
2021/07/31 00:34:37;;;;;;;7.30;4.18;;;;;;;21.54;72.91;97316.34;5033043;28;20127;-59
2021/07/31 00:37:03;;;;;;;6.35;4.18;;;;;;;21.57;73.18;97305.44;5031269;28;20120;-58
2021/07/31 00:39:29;;;;;;;8.77;4.03;;;;;;;21.68;72.79;97296.44;5033181;28;20925;-58
2021/07/31 00:41:54;;;;;;;5.97;4.03;;;;;;;21.68;73.58;97309.72;5031185;28;20493;-59
2021/07/31 00:44:20;;;;;;;6.63;4.50;;;;;;;21.52;74.20;97310.38;5029631;28;21463;-58
2021/07/31 00:46:46;;;;;;;7.30;4.22;;;;;;;21.49;73.51;97311.50;5029915;28;20052;-59
2021/07/31 00:49:11;;;;;;;5.97;4.00;;;;;;;21.49;73.93;97308.84;5030602;28;20029;-59
2021/07/31 00:51:36;;;;;;;7.18;4.43;;;;;;;21.59;74.12;97310.63;5030442;28;20068;-60
2021/07/31 00:54:02;;;;;;;6.28;4.03;;;;;;;21.55;73.84;97316.22;5031526;28;20119;-58
2021/07/31 00:56:28;;;;;;;5.78;4.05;;;;;;;21.29;75.21;97313.41;5028744;28;20065;-58
2021/07/31 00:58:53;;;;;;;6.03;4.50;;;;;;;21.41;74.37;97321.16;5033201;28;20028;-58
2021/07/31 01:01:19;;;;;;;6.82;4.25;;;;;;;21.43;75.13;97321.84;5029869;28;20122;-60
2021/07/31 01:03:46;;;;;;;7.53;4.38;;;;;;;21.28;75.82;97324.97;5029293;28;20033;-58
2021/07/31 01:06:11;;;;;;;7.93;4.07;;;;;;;21.38;75.69;97327.59;5030162;28;20486;-58
2021/07/31 01:08:39;;;;;;;8.65;4.00;;;;;;;21.52;75.22;97324.50;5031139;28;20033;-58
2021/07/31 01:11:06;;;;;;;7.43;4.50;;;;;;;21.25;75.69;97324.47;5029600;28;20060;-59
2021/07/31 01:13:32;;;;;;;6.93;4.70;;;;;;;21.29;75.62;97334.63;5031977;28;20056;-59
2021/07/31 01:16:03;;;;;;;7.13;4.40;;;;;;;21.42;75.34;97330.78;5033039;28;20037;-60
2021/07/31 01:18:29;;;;;;;5.57;4.30;;;;;;;21.33;75.83;97338.63;5031058;28;20041;-60
2021/07/31 01:20:54;;;;;;;9.07;4.75;;;;;;;21.44;75.05;97337.59;5031495;28;20272;-60
2021/07/31 01:23:20;;;;;;;7.05;4.60;;;;;;;;;;5030609;28;20079;-59
2021/07/31 01:25:45;;;;;;;7.05;4.50;;;;;;;21.40;75.55;97335.41;5031368;28;20041;-58
2021/07/31 01:28:11;;;;;;;6.75;4.65;;;;;;;21.25;75.84;97337.72;5030826;28;20041;-58
2021/07/31 01:30:36;;;;;;;6.88;4.60;;;;;;;21.43;75.23;97337.75;5030930;28;20080;-58
2021/07/31 01:33:01;;;;;;;7.10;4.80;;;;;;;21.14;75.92;97344.03;5031588;28;20025;-58
2021/07/31 01:35:27;;;;;;;11.15;4.80;;;;;;;21.30;75.13;97336.31;5031797;28;20033;-58
2021/07/31 01:37:52;;;;;;;6.50;4.50;;;;;;;21.52;74.83;97340.41;5030953;28;20399;-58
2021/07/31 01:40:17;;;;;;;8.60;4.90;;;;;;;21.28;74.73;97340.06;5031004;28;20520;-60
2021/07/31 01:42:43;;;;;;;7.13;4.60;;;;;;;21.40;73.84;97344.19;5027116;28;20765;-58
2021/07/31 01:45:09;;;;;;;10.10;4.80;;;;;;;21.26;74.21;97345.50;5030471;28;20439;-58
2021/07/31 01:47:34;;;;;;;6.25;4.30;;;;;;;21.57;73.35;97342.59;5031782;28;20483;-59
2021/07/31 01:50:00;;;;;;;7.93;4.65;;;;;;;21.46;72.70;97340.16;5027953;28;20075;-59
2021/07/31 01:52:26;;;;;;;10.07;5.47;;;;;;;21.48;72.70;97339.00;5031128;28;20407;-59
2021/07/31 01:54:51;;;;;;;7.85;5.00;;;;;;;21.22;73.66;97338.81;5029559;28;20044;-59
2021/07/31 01:57:17;;;;;;;8.27;5.10;;;;;;;21.43;72.29;97340.41;5030460;28;20435;-58
2021/07/31 01:59:42;;;;;;;6.78;4.68;;;;;;;21.35;71.50;97344.63;5031466;28;20029;-60
2021/07/31 02:02:07;;;;;;;7.78;4.45;;;;;;;21.40;72.21;97343.38;5030870;28;20049;-59
2021/07/31 02:04:35;;;;;;;8.05;4.40;;;;;;;21.35;71.06;97341.97;5029604;28;20131;-58
2021/07/31 02:07:01;;;;;;;16.88;5.05;;;;;;;21.43;70.54;97338.59;5030206;28;20052;-59
2021/07/31 02:09:28;;;;;;;6.53;4.28;;;;;;;21.29;70.58;97339.91;5030569;28;20028;-58
2021/07/31 02:11:53;;;;;;;5.88;4.18;;;;;;;21.25;70.12;97341.19;5029954;28;20049;-58
2021/07/31 02:14:18;;;;;;;8.10;4.70;;;;;;;21.20;69.69;97338.13;5029543;28;20065;-59
2021/07/31 02:16:44;;;;;;;8.25;4.22;;;;;;;21.24;69.95;97336.88;5029725;28;20111;-58
2021/07/31 02:19:10;;;;;;;6.20;4.25;;;;;;;21.12;67.67;97338.88;5027864;28;20025;-58
2021/07/31 02:21:35;;;;;;;5.72;4.07;;;;;;;21.28;71.47;97335.59;5030044;28;20037;-57
2021/07/31 02:24:00;;;;;;;5.78;3.70;;;;;;;21.03;68.81;97338.91;5029324;28;20025;-59
2021/07/31 02:26:26;;;;;;;5.80;3.83;;;;;;;20.97;67.42;97338.50;5029289;28;20045;-58
2021/07/31 02:28:51;;;;;;;6.68;3.45;;;;;;;21.12;67.00;97338.06;5030561;28;20040;-58
2021/07/31 02:31:16;;;;;;;6.05;3.90;;;;;;;20.99;66.79;97339.19;5028989;28;20140;-58
2021/07/31 02:33:42;;;;;;;5.32;3.80;;;;;;;21.03;66.75;97334.44;5028079;28;20029;-59
2021/07/31 02:36:08;;;;;;;4.97;3.65;;;;;;;20.98;67.99;97332.22;5029229;28;20037;-58
2021/07/31 02:38:34;;;;;;;6.18;3.33;;;;;;;20.66;68.32;97339.69;5027292;28;20795;-58
2021/07/31 02:41:00;;;;;;;6.40;3.30;;;;;;;20.99;68.11;97338.38;5029035;28;20075;-58
2021/07/31 02:43:25;;;;;;;5.97;3.60;;;;;;;20.76;68.03;97343.16;5029133;28;20115;-59
2021/07/31 02:45:50;;;;;;;6.80;3.45;;;;;;;20.65;68.09;97343.34;5028428;28;20120;-59
2021/07/31 02:48:16;;;;;;;5.05;3.72;;;;;;;20.51;67.79;97347.22;5030232;28;20774;-58
2021/07/31 02:50:41;;;;;;;6.70;3.60;;;;;;;20.50;68.32;97341.09;5028331;28;20453;-58
2021/07/31 02:53:07;;;;;;;6.28;3.20;;;;;;;20.46;66.93;97342.34;5027608;28;20896;-58
2021/07/31 02:55:32;;;;;;;5.57;3.47;;;;;;;20.39;66.51;97343.88;5029119;28;20474;-59
2021/07/31 02:57:58;;;;;;;4.50;3.38;;;;;;;20.42;67.32;97346.25;5029326;28;20096;-60
2021/07/31 03:00:23;;;;;;;8.43;3.40;;;;;;;20.15;67.83;97349.63;5030426;28;20465;-58
2021/07/31 03:02:48;;;;;;;8.77;3.30;;;;;;;20.23;68.12;97342.63;5028476;28;20044;-59
2021/07/31 03:05:14;;;;;;;4.68;3.30;;;;;;;20.05;67.52;97349.59;5029730;28;20568;-60
2021/07/31 03:07:39;;;;;;;7.13;3.10;;;;;;;20.06;68.02;97339.84;5030579;28;20021;-59
2021/07/31 03:10:06;;;;;;;4.45;3.10;;;;;;;20.01;67.66;97345.53;5028687;28;20094;-59
2021/07/31 03:12:32;;;;;;;4.68;3.20;;;;;;;19.82;68.73;97344.56;5030514;28;20033;-58
2021/07/31 03:14:57;;;;;;;5.40;3.50;;;;;;;19.90;68.06;97350.97;5028577;28;20047;-57
2021/07/31 03:17:22;;;;;;;7.22;3.10;;;;;;;20.07;69.39;97352.09;5028327;28;20025;-58
2021/07/31 03:19:48;;;;;;;5.68;3.25;;;;;;;19.79;69.36;97354.56;5030557;28;20127;-58
2021/07/31 03:22:13;;;;;;;7.75;3.28;;;;;;;19.95;69.42;97354.06;5029501;28;20656;-59
2021/07/31 03:24:39;;;;;;;4.03;2.80;;;;;;;19.71;68.75;97357.88;5031445;28;20110;-59
2021/07/31 03:27:05;;;;;;;5.18;3.20;;;;;;;19.83;68.29;97356.81;5027370;28;20057;-60
2021/07/31 03:29:34;;;;;;;5.38;3.13;;;;;;;19.91;69.41;97363.25;5030741;28;20406;-60
2021/07/31 03:32:00;;;;;;;7.13;3.25;;;;;;;19.64;69.36;97362.03;5027061;28;20041;-59
2021/07/31 03:34:26;;;;;;;7.65;3.20;;;;;;;19.67;69.14;97355.63;5027966;28;20033;-57
2021/07/31 03:36:55;;;;;;;5.40;3.17;;;;;;;19.57;70.01;97355.59;5028293;28;20526;-59
2021/07/31 03:39:24;;;;;;;4.53;3.20;;;;;;;19.65;70.68;97348.66;5029331;28;20645;-60
2021/07/31 03:41:50;;;;;;;5.03;2.80;;;;;;;19.68;70.25;97358.13;5028088;28;20029;-59
2021/07/31 03:44:19;;;;;;;4.00;2.78;;;;;;;19.77;70.53;97356.53;5029424;28;20040;-61
2021/07/31 03:46:46;;;;;;;7.10;3.30;;;;;;;19.36;69.83;97364.44;5027084;28;20043;-59
2021/07/31 03:49:12;;;;;;;5.40;3.00;;;;;;;19.57;69.80;97371.47;5027391;28;20490;-59
2021/07/31 03:51:38;;;;;;;5.80;3.42;;;;;;;19.30;70.45;97375.56;5027335;28;20092;-59
2021/07/31 03:54:03;;;;;;;6.93;3.05;;;;;;;19.55;70.29;97376.06;5027242;28;20037;-59
2021/07/31 03:56:29;;;;;;;4.85;3.33;;;;;;;19.21;70.34;97382.47;5028066;28;20075;-59
2021/07/31 03:58:54;;;;;;;5.07;2.90;;;;;;;19.29;70.54;97379.16;5033139;28;20053;-60
2021/07/31 04:01:24;;;;;;;5.35;3.30;;;;;;;19.20;70.61;97379.97;5042168;28;20044;-60
2021/07/31 04:03:50;;;;;;;8.85;3.25;;;;;;;19.07;70.28;97374.91;5041850;28;20025;-59
2021/07/31 04:06:15;;;;;;;7.15;3.13;;;;;;;19.14;70.26;97385.78;5034007;28;20044;-59
2021/07/31 04:08:40;;;;;;;5.32;2.85;;;;;;;19.31;70.51;97382.50;5032789;28;20491;-60
2021/07/31 04:11:06;;;;;;;4.03;2.90;;;;;;;19.17;70.58;97381.09;5033740;28;20498;-59
2021/07/31 04:13:31;;;;;;;6.95;3.20;;;;;;;19.14;70.55;97383.16;5034559;28;20021;-59
2021/07/31 04:15:56;;;;;;;6.45;3.30;;;;;;;19.18;71.61;97381.91;5033328;28;20033;-59
2021/07/31 04:18:22;;;;;;;7.05;3.25;;;;;;;19.35;70.59;97388.38;5033020;28;20300;-59
2021/07/31 04:20:47;;;;;;;5.03;3.10;;;;;;;19.40;69.81;97381.72;5034715;28;20033;-59
2021/07/31 04:23:13;;;;;;;6.68;3.20;;;;;;;19.23;69.93;97382.34;5031878;28;20592;-59
2021/07/31 04:25:38;;;;;;;4.55;3.03;;;;;;;19.41;69.21;97388.69;5031812;28;20033;-59
2021/07/31 04:28:04;;;;;;;4.22;2.85;;;;;;;19.64;69.79;97388.47;5032273;28;20056;-59
2021/07/31 04:30:31;;;;;;;5.50;2.85;;;;;;;19.44;70.23;97387.56;5033487;28;20061;-59
2021/07/31 04:32:57;;;;;;;6.53;3.30;;;;;;;19.42;69.98;97395.63;5033044;28;20097;-59
2021/07/31 04:35:23;;;;;;;5.72;3.15;;;;;;;19.56;69.98;97401.56;5031704;28;20029;-60
2021/07/31 04:37:48;;;;;;;5.55;3.15;;;;;;;19.40;69.26;97402.88;5032835;28;20033;-58
2021/07/31 04:40:14;;;;;;;5.35;2.90;;;;;;;19.69;68.71;97401.31;5031794;28;20629;-59
2021/07/31 04:42:39;;;;;;;4.50;2.95;;;;;;;19.59;68.75;97401.28;5032310;28;20064;-60
2021/07/31 04:45:05;;;;;;;4.97;2.67;;;;;;;19.61;68.41;97405.47;5031973;28;20033;-60
2021/07/31 04:47:38;;;;;;;5.95;3.03;;;;;;;19.63;68.27;97397.41;5030377;28;20503;-59
2021/07/31 04:50:05;;;;;;;4.53;2.78;;;;;;;19.35;68.71;97404.25;5033039;28;20039;-59
2021/07/31 04:52:30;;;;;;;4.78;2.50;;;;;;;19.49;69.00;97408.34;5033555;28;20113;-59
2021/07/31 04:54:56;;;;;;;4.80;3.00;;;;;;;19.37;68.96;97403.16;5032810;28;20132;-60
2021/07/31 04:57:21;;;;;;;3.85;2.60;;;;;;;19.52;67.84;97400.13;5033786;28;20037;-59
2021/07/31 04:59:46;;;;;;;4.60;2.60;;;;;;;19.51;67.82;97398.47;5029762;28;20418;-59
2021/07/31 05:02:11;;;;;;;5.68;2.70;;;;;;;19.34;67.39;97408.69;5029163;28;20040;-59
2021/07/31 05:04:39;;;;;;;5.20;2.75;;;;;;;19.78;67.06;97404.03;5030497;28;20029;-59
2021/07/31 05:07:06;;;;;;;5.70;2.85;;;;;;;19.88;65.89;97406.69;5032049;28;20559;-58
2021/07/31 05:09:33;;;;;;;6.45;2.65;;;;;;;20.46;65.74;97408.56;5030451;28;20399;-59
2021/07/31 05:11:58;;;;;;;6.28;2.53;;;;;;;20.01;65.48;97404.59;5029697;28;20631;-59
2021/07/31 05:14:24;;;;;;;8.85;2.42;;;;;;;19.87;66.55;97409.47;5032090;28;20037;-59
2021/07/31 05:16:49;;;;;;;6.07;2.85;;;;;;;20.21;64.72;97405.47;5031361;28;20037;-58
2021/07/31 05:19:15;;;;;;;5.38;2.30;;;;;;;19.95;65.62;97409.63;5031542;28;20029;-59
2021/07/31 05:21:40;;;;;;;4.93;2.58;;;;;;;20.01;65.71;97411.72;5030848;28;20057;-59
2021/07/31 05:24:06;;;;;;;4.82;2.50;;;;;;;20.02;65.47;97408.13;5031360;28;20405;-59
2021/07/31 05:26:31;;;;;;;6.93;2.72;;;;;;;20.02;65.40;97413.41;5030367;28;20046;-59
2021/07/31 05:28:56;;;;;;;5.00;2.58;;;;;;;19.86;65.18;97410.44;5031839;28;20029;-60
2021/07/31 05:31:22;;;;;;;5.38;2.58;;;;;;;19.64;65.06;97412.28;5028908;28;20659;-60
2021/07/31 05:33:48;;;;;;;3.50;2.30;;;;;;;19.72;64.81;97422.19;5031488;28;20032;-59
2021/07/31 05:36:13;;;;;;;5.57;2.47;;;;;;;19.56;66.01;97412.13;5030447;28;20477;-58
2021/07/31 05:38:39;;;;;;;8.13;3.00;;;;;;;19.92;64.10;97417.84;5033205;28;20026;-59
2021/07/31 05:41:04;;;;;;;3.72;2.20;;;;;;;20.39;64.64;97415.41;5031825;28;20040;-60
2021/07/31 05:43:29;;;;;;;4.90;2.47;;;;;;;20.22;63.32;97420.41;5028995;28;20468;-59
2021/07/31 05:45:55;;;;;;;5.20;2.35;;;;;;;20.43;63.54;97416.78;5028629;28;20099;-59
2021/07/31 05:48:20;;;;;;;4.30;2.40;;;;;;;20.30;63.34;97417.06;5030013;28;20144;-60
2021/07/31 05:50:45;;;;;;;6.60;2.70;;;;;;;20.33;62.71;97416.78;5031738;28;20410;-59
2021/07/31 05:53:11;;;;;;;9.00;2.38;;;;;;;20.67;60.65;97411.09;5030941;28;20485;-60
2021/07/31 05:55:36;;;;;;;4.28;2.30;;;;;;;21.95;57.62;97423.00;5033991;28;20045;-60
2021/07/31 05:58:02;;;;;;;7.10;2.60;;;;;;;23.35;54.68;97418.94;5029844;28;20039;-59
2021/07/31 06:00:27;;;;;;;5.63;2.10;;;;;;;24.27;52.27;97422.63;5030149;28;20375;-59
2021/07/31 06:02:53;;;;;;;5.63;2.42;;;;;;;25.80;47.06;97412.16;5029804;28;20591;-60
2021/07/31 06:05:18;;;;;;;5.45;2.05;;;;;;;25.46;47.19;97415.97;5031729;28;20025;-60
2021/07/31 06:07:44;;;;;;;12.13;2.15;;;;;;;25.70;46.94;97422.25;5028768;28;20479;-59
2021/07/31 06:10:09;;;;;;;5.07;2.10;;;;;;;26.38;45.08;97412.72;5031423;28;20121;-59
2021/07/31 06:12:35;;;;;;;7.38;2.08;;;;;;;26.81;45.00;97425.66;5028930;28;20029;-59
2021/07/31 06:15:01;;;;;;;5.78;1.90;;;;;;;26.43;43.53;97428.22;5030425;28;20104;-60
2021/07/31 06:17:26;;;;;;;5.30;2.00;;;;;;;27.23;42.56;97421.59;5030273;28;20116;-61
2021/07/31 06:19:52;;;;;;;4.55;2.00;;;;;;;26.94;43.01;97415.16;5029606;28;20024;-59
2021/07/31 06:22:17;;;;;;;4.32;2.03;;;;;;;27.35;42.76;97414.81;5029552;28;20120;-59
2021/07/31 06:24:42;;;;;;;3.72;1.90;;;;;;;27.74;39.91;97420.91;5030642;28;20065;-60
2021/07/31 06:27:08;;;;;;;8.45;2.00;;;;;;;27.78;40.75;97417.66;5028883;28;20037;-60
2021/07/31 06:29:34;;;;;;;4.90;1.98;;;;;;;28.38;39.63;97412.16;5029708;28;20028;-61
2021/07/31 06:32:02;;;;;;;5.93;1.90;;;;;;;27.64;39.86;97418.50;5028000;28;20037;-60
2021/07/31 06:34:27;;;;;;;8.05;2.03;;;;;;;29.95;37.52;97413.81;5029119;28;20025;-60
2021/07/31 06:36:52;;;;;;;6.68;1.50;;;;;;;29.64;38.37;97422.31;5031391;28;20094;-60
2021/07/31 06:39:18;;;;;;;5.13;1.98;;;;;;;29.30;37.58;97416.75;5031334;28;20058;-60
2021/07/31 06:41:43;;;;;;;4.10;1.63;;;;;;;28.57;39.46;97416.94;5030243;28;20029;-59
2021/07/31 06:44:08;;;;;;;6.13;1.73;;;;;;;28.94;38.59;97428.41;5029661;28;20033;-61
2021/07/31 06:46:34;;;;;;;5.88;1.63;;;;;;;28.93;37.34;97415.19;5031102;28;20819;-60
2021/07/31 06:48:59;;;;;;;5.53;1.75;;;;;;;30.66;34.71;97417.94;5030555;28;20028;-59
2021/07/31 06:51:25;;;;;;;4.25;1.73;;;;;;;29.85;37.06;97424.09;5028194;28;20045;-58
2021/07/31 06:53:51;;;;;;;3.15;1.45;;;;;;;29.07;36.42;97413.44;5027282;28;20041;-59
2021/07/31 06:56:18;;;;;;;4.57;1.63;;;;;;;29.89;36.07;97422.69;5028009;28;20055;-59
2021/07/31 06:58:43;;;;;;;6.15;1.70;;;;;;;30.81;34.76;97429.38;5029654;28;20029;-59
2021/07/31 07:01:13;;;;;;;4.80;1.50;;;;;;;29.40;35.64;97421.78;5028614;28;20429;-59
2021/07/31 07:03:39;;;;;;;5.00;1.40;;;;;;;29.72;35.77;97420.31;5031103;28;20045;-60
2021/07/31 07:06:06;;;;;;;4.43;1.50;;;;;;;29.26;34.96;97425.38;5027328;28;20140;-59
2021/07/31 07:08:32;;;;;;;4.22;1.63;;;;;;;29.24;36.06;97422.88;5028227;28;20039;-59
2021/07/31 07:10:58;;;;;;;4.05;1.50;;;;;;;29.74;35.13;97429.03;5029550;28;20207;-59
2021/07/31 07:13:24;;;;;;;7.70;1.70;;;;;;;29.37;34.93;97423.00;5030390;28;20040;-61
2021/07/31 07:15:49;;;;;;;3.75;1.50;;;;;;;29.84;35.42;97417.09;5027842;28;20385;-60
2021/07/31 07:18:15;;;;;;;5.18;1.90;;;;;;;29.82;34.55;97414.59;5029010;28;20028;-59
2021/07/31 07:20:41;;;;;;;4.70;1.60;;;;;;;31.00;33.06;97416.16;5028631;28;20582;-60
2021/07/31 07:23:06;;;;;;;3.33;1.48;;;;;;;30.99;33.47;97417.16;5027906;28;20067;-59
2021/07/31 07:25:31;;;;;;;3.80;1.33;;;;;;;31.76;33.21;97417.47;5029019;28;20061;-60
2021/07/31 07:27:57;;;;;;;4.82;1.50;;;;;;;31.92;31.96;97414.31;5028140;28;20127;-60
2021/07/31 07:30:22;;;;;;;8.18;1.60;;;;;;;31.57;31.07;97405.72;5028188;28;20029;-60
2021/07/31 07:32:47;;;;;;;4.95;1.45;;;;;;;30.62;32.88;97404.09;5026493;28;20311;-59
2021/07/31 07:35:13;;;;;;;4.63;1.55;;;;;;;30.27;33.07;97397.97;5029559;28;20380;-60
2021/07/31 07:37:38;;;;;;;4.22;1.50;;;;;;;31.35;31.38;97397.88;5028996;28;20586;-60
2021/07/31 07:40:04;;;;;;;4.35;1.55;;;;;;;30.80;33.50;97399.97;5028056;28;20481;-60
2021/07/31 07:42:30;;;;;;;4.00;1.30;;;;;;;31.02;31.97;97392.53;5029380;28;20024;-59
2021/07/31 07:44:55;;;;;;;2.80;1.30;;;;;;;31.52;32.48;97409.06;5030502;28;20036;-60
2021/07/31 07:47:20;;;;;;;3.88;1.50;;;;;;;31.48;31.48;97403.25;5027449;28;20033;-60
2021/07/31 07:49:46;;;;;;;4.10;1.50;;;;;;;31.61;31.46;97402.38;5029795;28;20033;-60
2021/07/31 07:52:11;;;;;;;4.32;1.50;;;;;;;31.46;31.29;97404.47;5025833;28;20099;-60
2021/07/31 07:54:36;;;;;;;4.60;1.67;;;;;;;33.02;30.49;97402.47;5029622;28;20722;-61
2021/07/31 07:57:07;;;;;;;7.23;1.60;;;;;;;31.89;31.21;97395.84;5028473;28;20030;-61
2021/07/31 07:59:35;;;;;;;4.63;1.60;;;;;;;31.85;30.83;97405.41;5031298;28;20268;-60
2021/07/31 08:02:02;;;;;;;3.53;1.55;;;;;;;31.23;32.13;97400.38;5029051;28;20059;-60
2021/07/31 08:04:27;;;;;;;4.53;1.55;;;;;;;32.57;31.24;97400.72;5031694;28;20127;-59
2021/07/31 08:06:53;;;;;;;3.53;1.67;;;;;;;32.92;30.32;97389.47;5028076;28;20091;-60
2021/07/31 08:09:18;;;;;;;4.45;1.50;;;;;;;32.30;31.07;97402.75;5029198;28;20297;-59
2021/07/31 08:11:43;;;;;;;4.60;1.55;;;;;;;32.30;30.34;97404.63;5032621;28;20041;-60
2021/07/31 08:14:10;;;;;;;3.42;1.52;;;;;;;33.28;29.58;97400.59;5028364;28;20036;-60
2021/07/31 08:16:35;;;;;;;4.68;1.40;;;;;;;34.18;29.53;97400.03;5030190;28;20144;-60
2021/07/31 08:19:02;;;;;;;4.10;1.52;;;;;;;33.34;30.31;97397.00;5031022;28;20116;-62
2021/07/31 08:21:29;;;;;;;3.63;1.52;;;;;;;32.47;30.37;97406.59;5028669;28;20037;-60
2021/07/31 08:23:54;;;;;;;3.17;1.45;;;;;;;32.08;32.43;97411.16;5027265;28;20032;-60
2021/07/31 08:26:20;;;;;;;4.18;1.40;;;;;;;32.70;30.06;97399.84;5027082;28;20118;-62
2021/07/31 08:28:45;;;;;;;5.68;1.70;;;;;;;32.58;31.20;97401.56;5029755;28;20037;-60
2021/07/31 08:31:12;;;;;;;2.97;1.50;;;;;;;31.60;30.43;97408.84;5024758;28;20042;-60
2021/07/31 08:33:38;;;;;;;5.07;1.70;;;;;;;30.16;33.83;97405.63;5023875;28;20040;-59
2021/07/31 08:36:05;;;;;;;6.47;1.58;;;;;;;31.38;32.90;97413.63;5027016;28;20064;-59
2021/07/31 08:38:31;;;;;;;4.15;1.40;;;;;;;30.72;31.80;97403.69;5026898;28;20084;-59
2021/07/31 08:40:57;;;;;;;4.45;1.50;;;;;;;30.74;32.25;97404.31;5027477;28;20061;-60
2021/07/31 08:43:23;;;;;;;5.38;1.65;;;;;;;30.82;32.45;97398.69;5028959;28;20026;-59
2021/07/31 08:45:50;;;;;;;4.75;1.70;;;;;;;31.89;31.58;97404.78;5031707;28;20045;-59
2021/07/31 08:48:18;;;;;;;8.35;1.60;;;;;;;31.05;32.50;97402.91;5034118;28;20021;-60
2021/07/31 08:50:44;;;;;;;4.22;1.50;;;;;;;30.21;34.22;97393.44;5030486;28;20041;-59
2021/07/31 08:53:10;;;;;;;5.57;1.60;;;;;;;28.52;34.52;97392.50;5031553;28;20482;-59
2021/07/31 08:55:35;;;;;;;4.30;1.30;;;;;;;29.96;34.02;97396.63;5032005;28;20094;-59
2021/07/31 08:58:01;;;;;;;5.35;1.70;;;;;;;30.64;33.46;97391.25;5030856;28;20032;-61
2021/07/31 09:00:27;;;;;;;3.42;1.55;;;;;;;31.38;31.53;97380.47;5029509;28;20084;-60
2021/07/31 09:02:52;;;;;;;5.68;1.60;;;;;;;30.59;32.66;97393.75;5033026;28;20536;-60
2021/07/31 09:05:41;;;;;;;3.55;1.40;;;;;;;29.81;33.24;97386.03;5031108;28;20029;-61
2021/07/31 09:08:07;;;;;;;5.90;1.58;;;;;;;30.22;31.25;97376.25;5034272;28;20266;-59
2021/07/31 09:10:41;;;;;;;7.45;1.60;;;;;;;30.27;33.08;97385.38;5031902;28;20049;-59
2021/07/31 09:13:12;;;;;;;4.93;1.60;;;;;;;30.64;32.87;97385.03;5030041;28;20021;-59
2021/07/31 09:15:50;;;;;;;8.90;1.75;;;;;;;30.83;31.50;97389.59;5033161;28;20036;-60
2021/07/31 09:18:21;;;;;;;6.40;1.70;;;;;;;29.44;33.76;97380.03;5032487;28;20410;-61
2021/07/31 09:21:14;;;;;;;8.60;1.70;;;;;;;27.56;36.97;97397.16;5034443;28;20041;-58
2021/07/31 09:23:46;;;;;;;4.82;1.40;;;;;;;28.63;35.17;97383.97;5030580;28;20057;-59
2021/07/31 09:26:24;;;;;;;4.22;1.70;;;;;;;29.66;33.54;97388.84;5046713;28;20037;-60
2021/07/31 09:29:06;;;;;;;7.28;1.50;;;;;;;29.98;33.38;97375.78;5029382;28;20025;-60
2021/07/31 09:31:32;;;;;;;11.20;1.77;;;;;;;28.17;34.90;97380.81;5029313;28;20402;-58
2021/07/31 09:34:00;;;;;;;6.55;1.75;;;;;;;28.09;36.21;97391.66;5032238;28;20037;-59
2021/07/31 09:36:42;;;;;;;3.95;1.60;;;;;;;29.47;34.38;97387.72;5030846;28;20037;-58
2021/07/31 09:39:09;;;;;;;6.00;1.50;;;;;;;29.12;34.26;97384.16;5036474;28;20025;-59
2021/07/31 09:41:39;;;;;;;4.78;1.50;;;;;;;30.07;33.89;97396.09;5031438;28;20029;-59
2021/07/31 09:44:10;;;;;;;8.38;1.70;;;;;;;31.05;32.12;97389.44;5028707;28;20029;-60
2021/07/31 09:46:46;;;;;;;5.13;1.80;;;;;;;29.53;34.50;97383.41;5032341;28;20048;-59
2021/07/31 09:49:14;;;;;;;7.03;1.60;;;;;;;30.70;32.68;97384.22;5030624;28;20264;-60
2021/07/31 09:51:45;;;;;;;6.80;1.70;;;;;;;29.76;33.75;97394.72;5030832;28;20810;-59
2021/07/31 09:54:12;;;;;;;5.50;1.45;;;;;;;29.76;33.91;97383.97;5030426;28;20032;-59
2021/07/31 09:56:40;;;;;;;4.22;1.80;;;;;;;30.05;33.75;97391.91;5028679;28;20046;-59
2021/07/31 09:59:07;;;;;;;5.35;1.70;;;;;;;27.88;35.58;97396.75;5038539;28;20046;-60
2021/07/31 10:01:38;;;;;;;5.75;2.00;;;;;;;27.72;38.61;97394.28;5030419;28;20032;-58
2021/07/31 10:04:04;;;;;;;4.13;1.45;;;;;;;27.75;36.71;97396.56;5025521;28;20048;-58
2021/07/31 10:06:31;;;;;;;4.35;1.70;;;;;;;28.59;35.23;97390.75;5030839;28;20052;-59
2021/07/31 10:08:57;;;;;;;5.25;1.73;;;;;;;28.63;35.74;97389.34;5030068;28;20029;-59
2021/07/31 10:11:23;;;;;;;5.38;2.00;;;;;;;28.25;36.10;97380.69;5029853;28;20033;-60
2021/07/31 10:13:49;;;;;;;3.13;1.60;;;;;;;30.07;33.97;97385.31;5026881;28;20033;-59
2021/07/31 10:16:16;;;;;;;5.18;1.50;;;;;;;28.62;35.78;97386.88;5026604;28;20033;-60
2021/07/31 10:18:57;;;;;;;4.32;1.70;;;;;;;28.04;36.48;97403.78;5028938;28;20112;-58
2021/07/31 10:21:24;;;;;;;4.88;1.70;;;;;;;28.96;35.38;97388.78;5027587;28;20094;-58
2021/07/31 10:23:55;;;;;;;6.03;1.60;;;;;;;27.76;36.74;97392.91;5029091;28;20069;-60
2021/07/31 10:26:21;;;;;;;3.83;1.50;;;;;;;27.32;38.35;97390.25;5029686;28;20099;-59
2021/07/31 10:28:47;;;;;;;5.40;1.85;;;;;;;27.43;37.60;97390.59;5029038;28;20024;-58
2021/07/31 10:31:33;;;;;;;4.35;1.63;;;;;;;26.59;39.05;97400.53;5028309;28;20038;-59
2021/07/31 10:33:58;;;;;;;4.00;1.60;;;;;;;26.40;38.82;97402.69;5029998;28;20037;-58
2021/07/31 10:36:28;;;;;;;3.70;1.90;;;;;;;27.23;38.16;97403.66;5030140;28;20087;-61
2021/07/31 10:38:53;;;;;;;3.35;1.60;;;;;;;27.16;38.72;97401.91;5028465;28;20026;-59
2021/07/31 10:41:57;;;;;;;4.80;1.70;;;;;;;27.03;37.01;97406.03;5028432;28;20102;-58
2021/07/31 10:44:23;;;;;;;2.80;1.60;;;;;;;27.02;38.84;97407.06;5026788;28;20025;-58
2021/07/31 10:46:48;;;;;;;5.70;1.65;;;;;;;26.03;39.27;97398.09;5029712;28;20045;-60
2021/07/31 10:49:36;;;;;;;4.65;1.60;;;;;;;26.96;38.11;97397.06;5031357;28;20076;-59
2021/07/31 10:52:03;;;;;;;3.60;1.40;;;;;;;26.98;38.04;97400.41;5027490;28;20163;-60
2021/07/31 10:54:57;;;;;;;6.55;1.67;;;;;;;27.73;36.27;97403.16;5028252;28;20127;-59
2021/07/31 10:57:52;;;;;;;4.07;1.67;;;;;;;26.72;38.85;97396.31;5028371;28;20537;-59
2021/07/31 11:00:23;;;;;;;7.28;1.70;;;;;;;26.43;39.11;97396.16;5022687;28;20041;-59
2021/07/31 11:02:48;;;;;;;3.25;1.50;;;;;;;27.06;38.37;97403.00;5026460;28;20025;-59
2021/07/31 11:05:14;;;;;;;4.97;1.60;;;;;;;27.08;37.90;97392.94;5027907;28;20029;-59
2021/07/31 11:07:57;;;;;;;4.07;1.58;;;;;;;27.72;36.66;97396.97;5029442;28;20074;-62
2021/07/31 11:10:34;;;;;;;4.25;1.40;;;;;;;27.94;36.33;97394.34;5029351;28;20065;-60
2021/07/31 11:13:00;;;;;;;4.80;1.52;;;;;;;26.74;38.56;97401.44;5026262;28;20033;-61
2021/07/31 11:15:25;;;;;;;4.30;1.50;;;;;;;26.86;37.64;97396.50;5027379;28;20032;-59
2021/07/31 11:17:58;;;;;;;5.45;2.03;;;;;;;27.73;36.93;97393.25;5028053;28;20429;-61
2021/07/31 11:20:33;;;;;;;5.13;1.60;;;;;;;28.56;36.05;97383.13;5030303;28;20043;-61
2021/07/31 11:23:03;;;;;;;2.90;1.65;;;;;;;30.01;33.89;97386.13;5027081;28;20033;-60
2021/07/31 11:25:28;;;;;;;4.13;1.80;;;;;;;29.37;33.82;97382.72;5029932;28;20156;-60
2021/07/31 11:27:54;;;;;;;3.30;1.70;;;;;;;29.28;33.67;97381.22;5028720;28;20116;-60
2021/07/31 11:30:20;;;;;;;3.75;1.80;;;;;;;29.14;34.14;97387.50;5029029;28;20116;-61
2021/07/31 11:32:45;;;;;;;5.05;1.52;;;;;;;28.45;33.47;97384.41;5026942;28;20028;-61